West Concord, Minnesota
Current Conditions -  °F | °C
As of 7:33 PM on Monday 22 Dec 2014 (Local Time) from KTOB Reporting Station
Light Snow Light Snow  
Wind Chill: 25°   Ceiling: 500
Heat Index: 34°   Visibility: 2mi
Dew Point: 34°   Wind: 12mph
Humidity: 100%   Direction: 90°E
Pressure: 29.56"   Gusts: NA
Location:  44.15°N, 92.9°W
Report Text: KTOB 230133Z AUTO 09010KT 2SM -SN OVC005 01/01 A2956 RMK AO2 P0001
Loading
Personal Weather Stations






























Interactive Weather Map New forecast layout! Learn more

10-Day Weather Forecast

Advertisements
Track Severe Weather on mobile